createdAt,value
2022-10-20T00:00:13.677Z,7.83
2022-10-20T00:02:35.350Z,7.30
2022-10-20T00:04:57.029Z,7.53
2022-10-20T00:07:18.530Z,7.77
2022-10-20T00:09:40.032Z,7.70
2022-10-20T00:12:01.550Z,7.63
2022-10-20T00:14:23.113Z,7.47
2022-10-20T00:16:44.628Z,7.80
2022-10-20T00:19:06.260Z,7.23
2022-10-20T00:21:28.983Z,7.23
2022-10-20T00:23:51.555Z,7.20
2022-10-20T00:26:16.564Z,7.43
2022-10-20T00:28:38.076Z,6.73
2022-10-20T00:30:59.998Z,8.17
2022-10-20T00:33:21.466Z,7.43
2022-10-20T00:35:42.945Z,6.80
2022-10-20T00:38:04.416Z,8.23
2022-10-20T00:40:26.389Z,7.67
2022-10-20T00:42:48.715Z,7.40
2022-10-20T00:45:14.726Z,6.77
2022-10-20T00:47:59.676Z,7.33
2022-10-20T00:50:32.975Z,7.53
2022-10-20T00:52:55.935Z,7.70
2022-10-20T00:55:22.941Z,6.93
2022-10-20T00:57:48.105Z,7.53
2022-10-20T01:00:10.293Z,8.03
2022-10-20T01:02:32.286Z,7.20
2022-10-20T01:04:54.285Z,7.90
2022-10-20T01:07:15.814Z,7.90
2022-10-20T01:09:39.133Z,7.47
2022-10-20T01:12:27.927Z,8.17
2022-10-20T01:14:58.255Z,8.20
2022-10-20T01:17:43.909Z,7.83
2022-10-20T01:20:50.391Z,7.90
2022-10-20T01:23:42.599Z,7.73
2022-10-20T01:26:38.242Z,7.60
2022-10-20T01:29:19.881Z,7.77
2022-10-20T01:31:53.451Z,8.43
2022-10-20T01:34:41.125Z,7.87
2022-10-20T01:37:06.647Z,7.83
2022-10-20T01:39:49.614Z,7.37
2022-10-20T01:42:20.672Z,7.87
2022-10-20T01:44:44.435Z,8.23
2022-10-20T01:47:08.531Z,8.90
2022-10-20T01:49:30.061Z,8.63
2022-10-20T01:51:51.809Z,9.13
2022-10-20T01:54:32.345Z,8.17
2022-10-20T01:57:13.439Z,8.90
2022-10-20T01:59:56.374Z,8.57
2022-10-20T02:02:41.632Z,8.70
2022-10-20T02:05:24.265Z,7.30
2022-10-20T02:07:45.807Z,8.03
2022-10-20T02:10:19.749Z,7.93
2022-10-20T02:12:45.395Z,7.60
2022-10-20T02:15:09.186Z,7.77
2022-10-20T02:17:32.340Z,7.77
2022-10-20T02:19:54.169Z,8.33
2022-10-20T02:22:17.580Z,8.13
2022-10-20T02:24:41.312Z,8.20
2022-10-20T02:27:14.279Z,7.80
2022-10-20T02:29:44.672Z,7.73
2022-10-20T02:32:07.933Z,7.80
2022-10-20T02:34:29.479Z,7.40
2022-10-20T02:36:51.096Z,8.03
2022-10-20T02:39:13.026Z,7.63
2022-10-20T02:41:34.529Z,7.20
2022-10-20T02:43:55.990Z,7.67
2022-10-20T02:46:17.635Z,7.50
2022-10-20T02:48:39.310Z,7.80
2022-10-20T02:51:01.022Z,7.80
2022-10-20T02:53:22.618Z,7.67
2022-10-20T02:55:44.115Z,7.73
2022-10-20T02:58:05.667Z,8.00
2022-10-20T03:00:31.051Z,7.70
2022-10-20T03:02:52.540Z,8.50
2022-10-20T03:05:14.695Z,7.57
2022-10-20T03:07:36.388Z,7.93
2022-10-20T03:09:58.255Z,8.80
2022-10-20T03:12:19.743Z,8.33
2022-10-20T03:14:42.927Z,8.10
2022-10-20T03:17:04.578Z,7.93
2022-10-20T03:19:26.165Z,8.63
2022-10-20T03:21:48.918Z,8.57
2022-10-20T03:24:10.415Z,8.53
2022-10-20T03:26:32.051Z,8.83
2022-10-20T03:28:53.568Z,8.33
2022-10-20T03:31:15.077Z,8.13
2022-10-20T03:33:36.643Z,7.73
2022-10-20T03:35:58.138Z,8.67
2022-10-20T03:38:19.978Z,7.47
2022-10-20T03:40:41.535Z,7.70
2022-10-20T03:43:03.020Z,7.53
2022-10-20T03:45:24.510Z,8.00
2022-10-20T03:47:45.980Z,7.90
2022-10-20T03:50:07.794Z,7.70
2022-10-20T03:52:29.281Z,7.83
2022-10-20T03:54:51.083Z,7.97
2022-10-20T03:57:12.545Z,7.50
2022-10-20T03:59:34.111Z,7.83
2022-10-20T04:01:55.668Z,7.70
2022-10-20T04:04:17.203Z,7.90
2022-10-20T04:06:38.744Z,8.13
2022-10-20T04:09:00.347Z,7.93
2022-10-20T04:11:21.963Z,9.07
2022-10-20T04:13:43.453Z,8.50
2022-10-20T04:16:05.223Z,8.10
2022-10-20T04:18:26.689Z,8.30
2022-10-20T04:20:48.715Z,8.50
2022-10-20T04:23:10.219Z,7.60
2022-10-20T04:25:31.746Z,7.83
2022-10-20T04:27:53.233Z,8.07
2022-10-20T04:30:14.818Z,7.40
2022-10-20T04:32:36.306Z,8.07
2022-10-20T04:34:57.899Z,7.63
2022-10-20T04:37:19.392Z,8.53
2022-10-20T04:39:41.025Z,7.37
2022-10-20T04:42:02.501Z,7.63
2022-10-20T04:44:24.089Z,7.83
2022-10-20T04:46:45.583Z,8.10
2022-10-20T04:49:07.110Z,8.13
2022-10-20T04:51:28.636Z,7.33
2022-10-20T04:53:50.134Z,7.53
2022-10-20T04:56:18.433Z,8.33
2022-10-20T04:58:40.040Z,8.10
2022-10-20T05:01:08.240Z,7.50
2022-10-20T05:03:30.069Z,7.80
2022-10-20T05:05:51.550Z,7.43
2022-10-20T05:08:13.130Z,7.87
2022-10-20T05:10:36.676Z,7.87
2022-10-20T05:12:58.409Z,7.47
2022-10-20T05:15:19.902Z,7.97
2022-10-20T05:17:41.446Z,7.77
2022-10-20T05:20:03.183Z,7.70
2022-10-20T05:22:24.721Z,7.33
2022-10-20T05:24:46.184Z,7.20
2022-10-20T05:27:07.658Z,7.67
2022-10-20T05:29:29.279Z,7.50
2022-10-20T05:31:50.914Z,7.87
2022-10-20T05:34:12.613Z,7.53
2022-10-20T05:36:34.395Z,7.70
2022-10-20T05:38:56.311Z,7.40
2022-10-20T05:41:20.577Z,6.90
2022-10-20T05:43:42.130Z,7.57
2022-10-20T05:46:04.602Z,7.43
2022-10-20T05:48:26.089Z,7.70
2022-10-20T05:50:47.589Z,7.17
2022-10-20T05:53:09.139Z,7.83
2022-10-20T05:55:30.634Z,7.60
2022-10-20T05:57:52.279Z,7.70
2022-10-20T06:00:15.840Z,6.83
2022-10-20T06:02:37.913Z,7.63
2022-10-20T06:04:59.704Z,6.90
2022-10-20T06:07:21.187Z,7.10
2022-10-20T06:09:42.695Z,7.43
2022-10-20T06:12:05.291Z,7.50
2022-10-20T06:14:27.447Z,7.73
2022-10-20T06:16:53.100Z,7.37
2022-10-20T06:19:14.682Z,7.80
2022-10-20T06:21:37.500Z,7.63
2022-10-20T06:23:59.977Z,7.87
2022-10-20T06:26:23.958Z,7.90
2022-10-20T06:28:47.616Z,7.67
2022-10-20T06:31:21.101Z,7.60
2022-10-20T06:33:43.856Z,8.13
2022-10-20T06:36:05.611Z,7.00
2022-10-20T06:38:27.816Z,7.43
2022-10-20T06:40:49.289Z,7.40
2022-10-20T06:43:10.813Z,6.83
2022-10-20T06:45:32.308Z,7.97
2022-10-20T06:47:53.822Z,7.10
2022-10-20T06:50:15.356Z,7.73
2022-10-20T06:52:37.090Z,7.60
2022-10-20T06:54:58.880Z,7.53
2022-10-20T06:57:20.414Z,7.40
2022-10-20T06:59:41.903Z,7.23
2022-10-20T07:02:03.441Z,6.60
2022-10-20T07:04:25.021Z,7.07
2022-10-20T07:06:47.170Z,7.07
2022-10-20T07:09:12.574Z,7.27
2022-10-20T07:11:35.351Z,7.20
2022-10-20T07:14:00.830Z,7.30
2022-10-20T07:16:24.388Z,6.83
2022-10-20T07:18:46.726Z,6.77
2022-10-20T07:21:11.633Z,7.20
2022-10-20T07:23:34.726Z,7.17
2022-10-20T07:26:12.761Z,6.93
2022-10-20T07:28:35.307Z,7.10
2022-10-20T07:30:56.817Z,7.00
2022-10-20T07:33:18.303Z,7.60
2022-10-20T07:35:39.770Z,6.80
2022-10-20T07:38:01.552Z,7.27
2022-10-20T07:42:49.547Z,6.73
2022-10-20T07:45:11.167Z,6.73
2022-10-20T07:47:36.691Z,6.77
2022-10-20T07:50:00.767Z,6.93
2022-10-20T07:52:22.255Z,6.97
2022-10-20T07:54:44.086Z,7.07
2022-10-20T07:57:05.595Z,7.03
2022-10-20T07:59:27.211Z,6.97
2022-10-20T08:01:48.845Z,7.67
2022-10-20T08:04:10.389Z,7.03
2022-10-20T08:06:31.989Z,7.00
2022-10-20T08:08:53.957Z,7.20
2022-10-20T08:11:15.900Z,7.03
2022-10-20T08:13:39.591Z,6.20
2022-10-20T08:16:01.759Z,6.30
2022-10-20T08:18:28.262Z,6.43
2022-10-20T08:20:49.967Z,6.80
2022-10-20T08:23:15.543Z,6.77
2022-10-20T08:25:37.055Z,7.00
2022-10-20T08:30:25.132Z,6.53
2022-10-20T08:32:50.982Z,6.77
2022-10-20T08:35:12.449Z,7.13
2022-10-20T08:37:36.616Z,6.60
2022-10-20T08:39:58.405Z,6.03
2022-10-20T08:42:19.953Z,6.60
2022-10-20T08:44:46.436Z,7.07
2022-10-20T08:47:38.536Z,6.43
2022-10-20T08:50:01.071Z,6.37
2022-10-20T08:52:25.240Z,6.77
2022-10-20T08:54:50.994Z,6.80
2022-10-20T08:57:22.851Z,7.00
2022-10-20T08:59:44.375Z,6.87
2022-10-20T09:02:15.776Z,7.33
2022-10-20T09:07:20.537Z,6.13
2022-10-20T09:09:42.136Z,6.97
2022-10-20T09:12:06.981Z,6.73
2022-10-20T09:14:32.464Z,6.93
2022-10-20T09:17:00.262Z,7.03
2022-10-20T09:19:23.359Z,6.77
2022-10-20T09:21:47.690Z,6.80
2022-10-20T09:24:09.335Z,7.17
2022-10-20T09:26:57.962Z,6.87
2022-10-20T09:29:22.126Z,6.70
2022-10-20T09:31:53.243Z,7.70
2022-10-20T09:34:31.491Z,7.30
2022-10-20T09:37:12.184Z,7.07
2022-10-20T09:39:56.489Z,6.97
2022-10-20T09:42:25.783Z,7.00
2022-10-20T09:44:52.261Z,7.67
2022-10-20T09:47:15.978Z,6.97
2022-10-20T09:49:39.564Z,6.70
2022-10-20T09:52:04.439Z,7.13
2022-10-20T09:54:27.158Z,6.37
2022-10-20T09:56:49.640Z,7.07
2022-10-20T09:59:25.131Z,7.13
2022-10-20T10:01:56.175Z,6.50
2022-10-20T10:04:48.229Z,6.17
2022-10-20T10:07:24.724Z,6.13
2022-10-20T10:09:55.635Z,5.90
2022-10-20T10:12:19.704Z,6.20
2022-10-20T10:14:54.195Z,6.43
2022-10-20T10:17:33.921Z,5.70
2022-10-20T10:19:56.456Z,6.97
2022-10-20T10:22:19.401Z,6.33
2022-10-20T10:24:48.496Z,6.20
2022-10-20T10:27:39.259Z,6.33
2022-10-20T10:30:22.461Z,6.20
2022-10-20T10:32:45.563Z,6.17
2022-10-20T10:35:24.519Z,5.80
2022-10-20T10:37:47.123Z,5.60
2022-10-20T10:40:16.218Z,5.53
2022-10-20T10:42:56.577Z,5.90
2022-10-20T10:45:31.517Z,5.85
2022-10-20T10:48:18.879Z,5.68
2022-10-20T10:50:48.738Z,6.03
2022-10-20T10:53:19.941Z,5.70
2022-10-20T10:55:54.712Z,6.03
2022-10-20T10:58:25.131Z,5.50
2022-10-20T11:01:01.325Z,5.70
2022-10-20T11:03:44.420Z,6.07
2022-10-20T11:06:19.050Z,5.43
2022-10-20T11:08:52.218Z,5.20
2022-10-20T11:11:52.205Z,5.85
2022-10-20T11:15:04.779Z,5.28
2022-10-20T11:17:35.679Z,5.93
2022-10-20T11:20:24.117Z,5.55
2022-10-20T11:23:05.636Z,5.10
2022-10-20T11:25:57.310Z,5.30
2022-10-20T11:28:31.536Z,5.18
2022-10-20T11:30:53.594Z,4.70
2022-10-20T11:33:20.925Z,4.93
2022-10-20T11:35:54.392Z,4.68
2022-10-20T11:38:23.850Z,5.07
2022-10-20T11:40:57.718Z,4.95
2022-10-20T11:43:36.075Z,5.38
2022-10-20T11:46:03.012Z,4.80
2022-10-20T11:48:40.611Z,5.00
2022-10-20T11:51:10.966Z,5.20
2022-10-20T11:54:01.682Z,5.20
2022-10-20T11:56:35.139Z,4.88
2022-10-20T11:59:24.180Z,5.30
2022-10-20T12:02:35.952Z,5.93
2022-10-20T12:05:39.006Z,7.85
2022-10-20T12:08:28.708Z,5.90
2022-10-20T12:10:57.176Z,11.82
2022-10-20T12:13:43.757Z,8.57
2022-10-20T12:16:05.542Z,6.18
2022-10-20T12:18:27.556Z,5.65
2022-10-20T12:20:55.128Z,12.18
2022-10-20T12:23:45.312Z,5.72
2022-10-20T12:26:29.838Z,5.07
2022-10-20T12:28:51.342Z,4.43
2022-10-20T12:31:12.783Z,4.15
2022-10-20T12:33:42.413Z,4.20
2022-10-20T12:36:14.807Z,4.32
2022-10-20T12:38:36.353Z,3.83
2022-10-20T12:41:00.203Z,4.13
2022-10-20T12:43:29.185Z,4.22
2022-10-20T12:45:51.369Z,4.72
2022-10-20T12:48:22.623Z,4.93
2022-10-20T12:50:47.024Z,4.85
2022-10-20T12:53:17.650Z,5.15
2022-10-20T12:55:42.135Z,5.10
2022-10-20T12:58:16.891Z,5.43
2022-10-20T13:00:38.330Z,5.03
2022-10-20T13:03:02.623Z,5.20
2022-10-20T13:05:29.413Z,5.35
2022-10-20T13:07:56.759Z,5.65
2022-10-20T13:10:27.264Z,5.35
2022-10-20T13:12:48.805Z,5.40
2022-10-20T13:15:13.946Z,5.53
2022-10-20T13:17:51.220Z,5.72
2022-10-20T13:20:24.287Z,6.47
2022-10-20T13:22:49.550Z,6.53
2022-10-20T13:25:29.484Z,7.00
2022-10-20T13:27:51.124Z,11.97
2022-10-20T13:30:20.394Z,7.80
2022-10-20T13:33:18.249Z,7.18
2022-10-20T13:35:46.722Z,6.73
2022-10-20T13:38:38.397Z,6.40
2022-10-20T13:41:16.694Z,6.47
2022-10-20T13:43:47.146Z,6.70
2022-10-20T13:46:18.964Z,5.53
2022-10-20T13:49:05.850Z,6.47
2022-10-20T13:51:32.429Z,5.33
2022-10-20T13:53:57.474Z,5.97
2022-10-20T13:56:26.149Z,5.83
2022-10-20T13:59:18.926Z,5.47
2022-10-20T14:01:47.470Z,5.30
2022-10-20T14:04:25.519Z,5.80
2022-10-20T14:06:47.324Z,5.53
2022-10-20T14:09:16.608Z,6.05
2022-10-20T14:11:39.519Z,5.45
2022-10-20T14:14:01.827Z,6.28
2022-10-20T14:16:27.926Z,5.90
2022-10-20T14:19:13.227Z,6.38
2022-10-20T14:21:50.789Z,5.18
2022-10-20T14:24:17.239Z,5.20
2022-10-20T14:26:44.055Z,5.32
2022-10-20T14:29:05.754Z,5.35
2022-10-20T14:31:27.599Z,5.60
2022-10-20T14:33:51.397Z,5.25
2022-10-20T14:36:33.152Z,5.88
2022-10-20T14:38:58.682Z,5.38
2022-10-20T14:41:33.801Z,4.90
2022-10-20T14:44:13.642Z,4.97
2022-10-20T14:46:46.780Z,5.07
2022-10-20T14:49:26.984Z,5.47
2022-10-20T14:51:57.496Z,5.20
2022-10-20T14:54:37.533Z,5.68
2022-10-20T14:57:02.113Z,5.65
2022-10-20T14:59:29.212Z,5.30
2022-10-20T15:02:12.192Z,5.15
2022-10-20T15:04:36.183Z,5.03
2022-10-20T15:07:26.900Z,5.53
2022-10-20T15:09:48.337Z,5.80
2022-10-20T15:12:21.075Z,5.38
2022-10-20T15:14:46.812Z,6.15
2022-10-20T15:17:31.083Z,7.60
2022-10-20T15:19:52.617Z,6.28
2022-10-20T15:24:40.557Z,6.53
2022-10-20T15:27:03.053Z,7.07
2022-10-20T15:29:25.474Z,7.23
2022-10-20T15:31:47.011Z,7.00
2022-10-20T15:34:09.700Z,6.83
2022-10-20T15:36:33.977Z,7.27
2022-10-20T15:38:56.572Z,6.73
2022-10-20T15:41:25.334Z,6.10
2022-10-20T15:43:47.250Z,5.87
2022-10-20T15:46:11.414Z,6.40
2022-10-20T15:48:32.936Z,6.03
2022-10-20T15:50:55.628Z,6.07
2022-10-20T15:53:18.471Z,6.30
2022-10-20T15:55:42.694Z,6.30
2022-10-20T15:58:04.440Z,6.50
2022-10-20T16:00:27.993Z,6.53
2022-10-20T16:02:50.142Z,6.60
2022-10-20T16:05:12.210Z,6.93
2022-10-20T16:07:33.878Z,7.30
2022-10-20T16:09:55.556Z,6.63
2022-10-20T16:12:17.473Z,6.60
2022-10-20T16:14:39.057Z,6.23
2022-10-20T16:17:00.564Z,6.40
2022-10-20T16:19:22.063Z,7.07
2022-10-20T16:21:43.618Z,7.33
2022-10-20T16:24:05.278Z,8.13
2022-10-20T16:26:27.210Z,6.83
2022-10-20T16:28:48.798Z,7.00
2022-10-20T16:31:12.325Z,7.20
2022-10-20T16:33:34.705Z,7.40
2022-10-20T16:35:56.278Z,7.40
2022-10-20T16:38:17.758Z,7.30
2022-10-20T16:40:39.251Z,7.07
2022-10-20T16:43:01.203Z,8.03
2022-10-20T16:47:45.145Z,8.03
2022-10-20T16:50:07.751Z,8.40
2022-10-20T16:52:29.258Z,8.27
2022-10-20T16:54:50.763Z,8.07
2022-10-20T16:57:12.915Z,7.70
2022-10-20T16:59:34.460Z,7.40
2022-10-20T17:01:55.932Z,7.87
2022-10-20T17:04:17.450Z,9.00
2022-10-20T17:06:38.978Z,10.47
2022-10-20T17:09:00.597Z,11.77
2022-10-20T17:11:24.888Z,10.33
2022-10-20T17:13:46.397Z,11.37
2022-10-20T17:16:13.673Z,10.07
2022-10-20T17:18:35.672Z,9.63
2022-10-20T17:20:57.209Z,8.80
2022-10-20T17:23:18.717Z,8.90
2022-10-20T17:25:40.295Z,8.43
2022-10-20T17:28:01.789Z,8.37
2022-10-20T17:30:23.301Z,9.60
2022-10-20T17:32:44.824Z,8.93
2022-10-20T17:35:06.830Z,9.33
2022-10-20T17:37:28.350Z,8.90
2022-10-20T17:39:49.864Z,9.40
2022-10-20T17:42:11.440Z,10.43
2022-10-20T17:44:32.952Z,9.73
2022-10-20T17:46:54.435Z,8.90
2022-10-20T17:49:15.925Z,9.03
2022-10-20T17:51:37.569Z,9.53
2022-10-20T17:53:59.099Z,9.07
2022-10-20T17:56:23.452Z,10.23
2022-10-20T17:58:47.132Z,10.97
2022-10-20T18:01:17.299Z,10.80
2022-10-20T18:03:39.828Z,11.07
2022-10-20T18:06:12.097Z,11.10
2022-10-20T18:08:33.710Z,10.47
2022-10-20T18:10:55.246Z,11.50
2022-10-20T18:13:16.792Z,13.13
2022-10-20T18:15:43.061Z,10.57
2022-10-20T18:18:04.618Z,10.63
2022-10-20T18:20:30.859Z,10.63
2022-10-20T18:22:53.865Z,11.10
2022-10-20T18:25:15.461Z,11.07
2022-10-20T18:27:36.916Z,10.67
2022-10-20T18:29:58.434Z,10.33
2022-10-20T18:32:19.906Z,10.30
2022-10-20T18:34:43.459Z,10.70
2022-10-20T18:37:05.030Z,12.13
2022-10-20T18:39:26.728Z,13.83
2022-10-20T18:41:51.749Z,13.37
2022-10-20T18:44:15.681Z,12.83
2022-10-20T18:46:38.066Z,12.43
2022-10-20T18:49:01.297Z,11.77
2022-10-20T18:51:23.083Z,11.60
2022-10-20T18:53:46.172Z,9.80
2022-10-20T18:56:12.294Z,9.33
2022-10-20T18:58:38.245Z,10.07
2022-10-20T19:01:01.905Z,9.53
2022-10-20T19:03:23.544Z,9.37
2022-10-20T19:05:45.992Z,9.40
2022-10-20T19:08:07.624Z,10.87
2022-10-20T19:10:29.150Z,10.60
2022-10-20T19:12:50.638Z,10.20
2022-10-20T19:15:12.185Z,10.93
2022-10-20T19:17:33.726Z,10.63
2022-10-20T19:19:55.310Z,10.97
2022-10-20T19:22:17.432Z,10.93
2022-10-20T19:24:40.642Z,10.83
2022-10-20T19:27:25.227Z,11.93
2022-10-20T19:29:43.694Z,11.43
2022-10-20T19:32:06.812Z,11.13
2022-10-20T19:34:29.971Z,11.37
2022-10-20T19:36:51.609Z,10.63
2022-10-20T19:39:16.403Z,11.33
2022-10-20T19:41:38.077Z,12.80
2022-10-20T19:44:00.224Z,12.10
2022-10-20T19:46:22.479Z,12.63
2022-10-20T19:48:46.132Z,12.80
2022-10-20T19:51:11.154Z,12.73
2022-10-20T19:53:33.980Z,11.83
2022-10-20T19:55:55.468Z,11.47
2022-10-20T19:58:18.189Z,11.33
2022-10-20T20:00:44.149Z,11.30
2022-10-20T20:03:05.724Z,12.13
2022-10-20T20:05:27.193Z,11.97
2022-10-20T20:07:48.701Z,12.27
2022-10-20T20:10:10.443Z,12.87
2022-10-20T20:12:31.983Z,11.47
2022-10-20T20:14:53.810Z,11.37
2022-10-20T20:17:15.396Z,11.67
2022-10-20T20:19:36.898Z,11.27
2022-10-20T20:21:58.428Z,11.27
2022-10-20T20:24:19.944Z,12.20
2022-10-20T20:26:41.704Z,11.80
2022-10-20T20:29:04.133Z,11.23
2022-10-20T20:31:26.604Z,12.07
2022-10-20T20:33:48.367Z,11.87
2022-10-20T20:36:10.210Z,11.27
2022-10-20T20:38:34.366Z,11.47
2022-10-20T20:40:58.927Z,11.87
2022-10-20T20:43:20.611Z,12.33
2022-10-20T20:45:44.331Z,11.33
2022-10-20T20:48:06.182Z,11.63
2022-10-20T20:50:27.650Z,11.33
2022-10-20T20:52:49.602Z,11.23
2022-10-20T20:55:11.080Z,11.50
2022-10-20T20:57:32.569Z,11.33
2022-10-20T20:59:54.023Z,11.63
2022-10-20T21:02:16.636Z,11.10
2022-10-20T21:04:38.104Z,11.97
2022-10-20T21:07:03.133Z,11.33
2022-10-20T21:09:24.747Z,12.33
2022-10-20T21:11:46.220Z,11.87
2022-10-20T21:14:08.991Z,11.80
2022-10-20T21:16:36.034Z,11.67
2022-10-20T21:19:00.617Z,11.53
2022-10-20T21:21:26.963Z,12.83
2022-10-20T21:23:48.828Z,12.50
2022-10-20T21:26:11.852Z,14.07
2022-10-20T21:28:33.861Z,14.03
2022-10-20T21:30:57.457Z,14.13
2022-10-20T21:33:21.696Z,13.73
2022-10-20T21:35:43.178Z,14.27
2022-10-20T21:38:04.683Z,13.87
2022-10-20T21:40:26.169Z,14.27
2022-10-20T21:42:47.722Z,13.87
2022-10-20T21:45:09.519Z,14.00
2022-10-20T21:47:30.993Z,14.40
2022-10-20T21:49:52.440Z,14.67
2022-10-20T21:52:14.563Z,14.20
2022-10-20T21:54:36.036Z,14.37
2022-10-20T21:56:58.079Z,13.37
2022-10-20T21:59:24.088Z,13.00
2022-10-20T22:01:46.632Z,13.97
2022-10-20T22:04:08.075Z,12.17
2022-10-20T22:06:29.529Z,11.63
2022-10-20T22:08:53.644Z,12.00
2022-10-20T22:11:21.498Z,12.10
2022-10-20T22:13:43.202Z,11.17
2022-10-20T22:16:06.605Z,10.73
2022-10-20T22:18:28.456Z,11.07
2022-10-20T22:20:49.935Z,11.50
2022-10-20T22:23:11.435Z,10.80
2022-10-20T22:25:37.861Z,10.50
2022-10-20T22:27:59.325Z,10.97
2022-10-20T22:30:20.781Z,10.50
2022-10-20T22:32:42.335Z,10.53
2022-10-20T22:35:04.105Z,9.63
2022-10-20T22:37:25.639Z,9.60
2022-10-20T22:39:47.116Z,9.70
2022-10-20T22:42:09.370Z,10.37
2022-10-20T22:44:30.838Z,9.90
2022-10-20T22:46:52.329Z,10.53
2022-10-20T22:49:14.163Z,9.20
2022-10-20T22:51:35.649Z,9.97
2022-10-20T22:53:57.422Z,9.03
2022-10-20T22:56:21.350Z,9.00
2022-10-20T22:58:43.386Z,9.67
2022-10-20T23:01:10.497Z,9.43
2022-10-20T23:03:32.095Z,9.30
2022-10-20T23:05:53.565Z,8.90
2022-10-20T23:08:15.044Z,9.20
2022-10-20T23:10:36.489Z,8.50
2022-10-20T23:12:57.978Z,10.10
2022-10-20T23:15:19.434Z,9.20
2022-10-20T23:17:41.056Z,9.50
2022-10-20T23:20:02.629Z,9.37
2022-10-20T23:22:24.182Z,10.17
2022-10-20T23:24:46.420Z,9.73
2022-10-20T23:27:08.238Z,9.30
2022-10-20T23:29:29.695Z,10.07
2022-10-20T23:31:51.191Z,9.93
2022-10-20T23:34:12.726Z,9.83
2022-10-20T23:36:36.766Z,10.73
2022-10-20T23:39:00.527Z,10.87
2022-10-20T23:41:22.023Z,11.10
2022-10-20T23:43:43.591Z,11.20
2022-10-20T23:46:05.746Z,11.43
2022-10-20T23:48:27.645Z,11.13
2022-10-20T23:50:49.187Z,11.63
2022-10-20T23:53:11.261Z,12.07
2022-10-20T23:55:32.741Z,11.80
2022-10-20T23:57:54.287Z,12.30
